createdAt,value
2018-11-06T00:01:19.490Z,62.38
2018-11-06T00:04:09.286Z,62.29
2018-11-06T00:06:42.370Z,62.29
2018-11-06T00:09:15.457Z,62.58
2018-11-06T00:11:46.884Z,62.29
2018-11-06T00:14:19.670Z,62.17
2018-11-06T00:16:52.638Z,62.81
2018-11-06T00:19:25.567Z,62.81
2018-11-06T00:21:58.605Z,62.83
2018-11-06T00:24:31.894Z,62.94
2018-11-06T00:27:04.870Z,62.99
2018-11-06T00:29:37.855Z,62.93
2018-11-06T00:32:10.622Z,63.19
2018-11-06T00:37:19.513Z,62.94
2018-11-06T00:39:50.890Z,63.08
2018-11-06T00:42:23.770Z,63.05
2018-11-06T00:44:56.806Z,63.45
2018-11-06T00:47:29.633Z,63.74
2018-11-06T00:50:02.509Z,63.74
2018-11-06T00:52:35.250Z,63.87
2018-11-06T00:55:10.281Z,63.95
2018-11-06T00:57:44.380Z,63.78
2018-11-06T01:00:19.887Z,63.84
2018-11-06T01:02:52.644Z,64.17
2018-11-06T01:05:26.145Z,64.25
2018-11-06T01:07:59.152Z,64.25
2018-11-06T01:10:32.077Z,64.15
2018-11-06T01:13:05.143Z,64.28
2018-11-06T01:15:38.107Z,64.33
2018-11-06T01:18:11.212Z,64.49
2018-11-06T01:20:44.328Z,64.49
2018-11-06T01:23:17.459Z,64.60
2018-11-06T01:25:48.893Z,64.82
2018-11-06T01:28:21.804Z,64.70
2018-11-06T01:30:54.677Z,64.55
2018-11-06T01:33:27.421Z,64.62
2018-11-06T01:35:58.646Z,64.81
2018-11-06T01:38:31.503Z,65.06
2018-11-06T01:41:04.124Z,65.27
2018-11-06T01:43:37.097Z,65.41
2018-11-06T01:46:10.402Z,65.34
2018-11-06T01:48:41.665Z,65.11
2018-11-06T01:51:14.532Z,65.86
2018-11-06T01:53:47.457Z,65.86
2018-11-06T01:56:18.661Z,65.99
2018-11-06T01:58:51.637Z,66.29
2018-11-06T02:01:24.521Z,66.29
2018-11-06T02:03:57.397Z,66.25
2018-11-06T02:06:28.837Z,66.25
2018-11-06T02:09:01.973Z,66.17
2018-11-06T02:11:35.147Z,66.38
2018-11-06T02:14:08.508Z,66.21
2018-11-06T02:16:41.452Z,66.17
2018-11-06T02:19:13.063Z,65.88
2018-11-06T02:21:46.110Z,65.85
2018-11-06T02:24:18.796Z,65.74
2018-11-06T02:26:51.631Z,66.02
2018-11-06T02:29:24.430Z,65.93
2018-11-06T02:31:55.891Z,65.87
2018-11-06T02:34:28.652Z,66.11
2018-11-06T02:37:01.612Z,66.19
2018-11-06T02:39:34.450Z,66.19
2018-11-06T02:42:05.856Z,66.12
2018-11-06T02:44:38.638Z,65.96
2018-11-06T02:47:11.748Z,65.68
2018-11-06T02:49:44.662Z,65.79
2018-11-06T02:52:17.615Z,65.75
2018-11-06T02:54:50.503Z,65.75
2018-11-06T02:57:23.437Z,65.92
2018-11-06T02:59:54.879Z,65.92
2018-11-06T03:02:28.118Z,66.30
2018-11-06T03:05:01.099Z,66.18
2018-11-06T03:07:34.102Z,66.08
2018-11-06T03:10:07.261Z,66.02
2018-11-06T03:12:41.257Z,66.11
2018-11-06T03:15:14.987Z,66.11
2018-11-06T03:17:47.786Z,65.99
2018-11-06T03:20:20.808Z,66.02
2018-11-06T03:22:53.631Z,66.24
2018-11-06T03:25:26.465Z,66.07
2018-11-06T03:27:57.885Z,66.07
2018-11-06T03:30:30.799Z,66.05
2018-11-06T03:33:03.650Z,66.00
2018-11-06T03:35:36.663Z,66.20
2018-11-06T03:38:09.610Z,66.03
2018-11-06T03:40:42.541Z,65.84
2018-11-06T03:43:15.464Z,65.84
2018-11-06T03:45:46.635Z,65.89
2018-11-06T03:48:19.636Z,66.47
2018-11-06T03:50:52.490Z,66.61
2018-11-06T03:53:23.895Z,66.61
2018-11-06T03:55:56.805Z,66.67
2018-11-06T03:58:29.620Z,66.57
2018-11-06T04:01:02.601Z,66.40
2018-11-06T04:03:35.584Z,66.40
2018-11-06T04:06:08.631Z,66.61
2018-11-06T04:08:41.511Z,66.49
2018-11-06T04:11:14.448Z,66.49
2018-11-06T04:13:45.639Z,66.40
2018-11-06T04:16:18.494Z,65.96
2018-11-06T04:18:49.880Z,65.96
2018-11-06T04:21:30.631Z,65.64
2018-11-06T04:24:03.494Z,65.63
2018-11-06T04:26:37.407Z,65.63
2018-11-06T04:29:09.500Z,65.54
2018-11-06T04:31:41.400Z,65.38
2018-11-06T04:34:12.893Z,65.46
2018-11-06T04:36:45.643Z,65.42
2018-11-06T04:39:18.478Z,65.17
2018-11-06T04:41:51.488Z,65.17
2018-11-06T04:44:24.414Z,65.14
2018-11-06T04:46:55.894Z,65.36
2018-11-06T04:49:29.012Z,65.46
2018-11-06T04:52:01.806Z,65.26
2018-11-06T04:54:34.677Z,65.38
2018-11-06T04:57:07.662Z,65.60
2018-11-06T04:59:40.595Z,65.68
2018-11-06T05:02:13.584Z,65.68
2018-11-06T05:04:44.890Z,65.54
2018-11-06T05:07:17.694Z,65.48
2018-11-06T05:09:50.634Z,65.27
2018-11-06T05:12:23.485Z,65.49
2018-11-06T05:14:54.894Z,65.49
2018-11-06T05:17:27.724Z,65.76
2018-11-06T05:20:00.656Z,66.23
2018-11-06T05:22:33.436Z,66.28
2018-11-06T05:25:04.893Z,66.68
2018-11-06T05:27:38.050Z,66.64
2018-11-06T05:30:12.568Z,67.06
2018-11-06T05:32:45.832Z,67.26
2018-11-06T05:35:18.644Z,67.31
2018-11-06T05:37:51.674Z,67.31
2018-11-06T05:41:16.990Z,67.27
2018-11-06T05:43:50.141Z,67.27
2018-11-06T05:46:23.113Z,67.46
2018-11-06T05:48:55.907Z,67.30
2018-11-06T05:51:29.258Z,67.26
2018-11-06T05:54:02.491Z,67.47
2018-11-06T05:58:48.678Z,67.53
2018-11-06T06:01:21.525Z,67.24
2018-11-06T06:03:52.889Z,67.23
2018-11-06T06:06:26.160Z,67.16
2018-11-06T06:08:59.134Z,67.22
2018-11-06T06:11:32.131Z,67.24
2018-11-06T06:14:05.162Z,67.22
2018-11-06T06:16:39.208Z,67.14
2018-11-06T06:21:58.265Z,67.04
2018-11-06T06:24:31.339Z,67.03
2018-11-06T06:27:04.470Z,66.84
2018-11-06T06:29:35.902Z,66.80
2018-11-06T06:32:08.973Z,66.48
2018-11-06T06:34:41.708Z,66.41
2018-11-06T06:39:41.995Z,66.39
2018-11-06T06:42:14.783Z,65.84
2018-11-06T06:44:48.149Z,65.84
2018-11-06T06:47:27.424Z,65.67
2018-11-06T06:50:00.439Z,65.39
2018-11-06T06:52:34.261Z,65.06
2018-11-06T06:55:11.460Z,64.91
2018-11-06T06:57:45.739Z,64.83
2018-11-06T07:00:22.932Z,64.37
2018-11-06T07:02:56.130Z,64.37
2018-11-06T07:05:30.268Z,64.06
2018-11-06T07:08:03.402Z,63.54
2018-11-06T07:10:34.899Z,63.01
2018-11-06T07:13:08.612Z,62.19
2018-11-06T07:15:39.649Z,61.28
2018-11-06T07:18:12.636Z,60.27
2018-11-06T07:20:45.679Z,59.41
2018-11-06T07:23:18.633Z,58.93
2018-11-06T07:25:51.629Z,59.35
2018-11-06T07:28:24.548Z,59.35
2018-11-06T07:30:57.760Z,59.20
2018-11-06T07:33:30.641Z,59.57
2018-11-06T07:36:03.630Z,59.48
2018-11-06T07:38:36.672Z,59.46
2018-11-06T07:41:09.736Z,58.98
2018-11-06T07:43:42.700Z,58.10
2018-11-06T07:46:15.637Z,57.79
2018-11-06T07:48:48.639Z,57.47
2018-11-06T07:51:21.648Z,56.23
2018-11-06T07:53:54.643Z,55.20
2018-11-06T07:56:27.678Z,54.77
2018-11-06T07:59:00.582Z,54.77
2018-11-06T08:01:31.913Z,53.90
2018-11-06T08:04:05.032Z,53.03
2018-11-06T08:06:37.632Z,50.65
2018-11-06T08:09:12.596Z,48.37
2018-11-06T08:11:44.289Z,45.26
2018-11-06T08:14:17.187Z,45.26
2018-11-06T08:16:50.380Z,43.77
2018-11-06T08:19:21.881Z,41.33
2018-11-06T08:21:55.129Z,39.89
2018-11-06T08:24:28.264Z,40.58
2018-11-06T08:27:01.454Z,39.90
2018-11-06T08:29:33.262Z,39.14
2018-11-06T08:32:06.723Z,40.40
2018-11-06T08:34:39.497Z,42.67
2018-11-06T08:37:11.018Z,43.77
2018-11-06T08:39:43.826Z,45.01
2018-11-06T08:42:17.159Z,45.83
2018-11-06T08:44:50.130Z,45.26
2018-11-06T08:47:23.262Z,42.94
2018-11-06T08:49:56.131Z,41.25
2018-11-06T08:52:29.121Z,42.18
2018-11-06T08:55:02.230Z,41.78
2018-11-06T08:57:36.596Z,40.75
2018-11-06T09:00:13.012Z,40.64
2018-11-06T09:02:47.267Z,40.21
2018-11-06T09:05:20.634Z,39.00
2018-11-06T09:07:53.667Z,38.19
2018-11-06T09:10:26.634Z,38.57
2018-11-06T09:12:59.822Z,38.57
2018-11-06T09:15:33.113Z,38.66
2018-11-06T09:18:07.249Z,38.02
2018-11-06T09:20:40.398Z,38.25
2018-11-06T09:23:12.037Z,38.40
2018-11-06T09:25:46.259Z,38.51
2018-11-06T09:28:19.469Z,39.09
2018-11-06T09:30:50.949Z,39.71
2018-11-06T09:33:23.675Z,38.79
2018-11-06T09:35:56.474Z,40.61
2018-11-06T09:38:29.406Z,40.61
2018-11-06T09:41:02.222Z,40.30
2018-11-06T09:43:34.712Z,40.50
2018-11-06T09:46:07.632Z,40.37
2018-11-06T09:48:40.693Z,40.37
2018-11-06T09:51:13.669Z,39.86
2018-11-06T09:53:46.640Z,40.00
2018-11-06T09:56:19.674Z,39.75
2018-11-06T09:58:52.647Z,39.82
2018-11-06T10:01:25.655Z,39.01
2018-11-06T10:03:58.682Z,37.61
2018-11-06T10:08:52.657Z,36.25
2018-11-06T10:11:25.601Z,36.39
2018-11-06T10:13:58.476Z,36.39
2018-11-06T10:16:29.902Z,37.57
2018-11-06T10:19:02.985Z,37.57
2018-11-06T10:21:36.226Z,38.13
2018-11-06T10:24:09.549Z,38.37
2018-11-06T10:26:42.655Z,38.02
2018-11-06T10:29:15.676Z,37.45
2018-11-06T10:31:48.634Z,36.89
2018-11-06T10:34:21.647Z,36.55
2018-11-06T10:36:54.622Z,35.98
2018-11-06T10:39:27.870Z,35.01
2018-11-06T10:42:00.933Z,35.01
2018-11-06T10:44:34.144Z,33.93
2018-11-06T10:47:10.457Z,33.63
2018-11-06T10:49:42.075Z,33.46
2018-11-06T10:52:15.420Z,31.27
2018-11-06T10:54:47.053Z,31.27
2018-11-06T10:57:20.122Z,30.87
2018-11-06T10:59:53.202Z,30.45
2018-11-06T11:02:43.321Z,29.49
2018-11-06T11:05:16.256Z,28.37
2018-11-06T11:07:49.193Z,27.45
2018-11-06T11:10:22.268Z,27.45
2018-11-06T11:12:55.529Z,26.86
2018-11-06T11:15:28.464Z,26.36
2018-11-06T11:18:01.459Z,26.36
2018-11-06T11:20:34.542Z,25.50
2018-11-06T11:23:08.120Z,24.54
2018-11-06T11:25:41.189Z,23.64
2018-11-06T11:28:14.267Z,23.33
2018-11-06T11:30:47.413Z,22.75
2018-11-06T11:33:18.896Z,22.44
2018-11-06T11:35:52.173Z,22.17
2018-11-06T11:38:27.124Z,21.96
2018-11-06T11:41:00.266Z,22.10
2018-11-06T11:43:33.170Z,21.92
2018-11-06T11:46:07.381Z,21.07
2018-11-06T11:48:39.827Z,21.08
2018-11-06T11:51:12.650Z,22.33
2018-11-06T11:53:45.635Z,25.66
2018-11-06T11:59:10.662Z,25.54
2018-11-06T12:01:43.619Z,23.98
2018-11-06T12:04:16.644Z,23.98
2018-11-06T12:06:49.510Z,21.17
2018-11-06T12:09:22.483Z,20.54
2018-11-06T12:11:55.437Z,20.54
2018-11-06T12:14:28.630Z,19.96
2018-11-06T12:17:01.612Z,18.86
2018-11-06T12:19:34.656Z,18.75
2018-11-06T12:22:08.120Z,18.75
2018-11-06T12:24:41.423Z,18.51
2018-11-06T12:27:14.358Z,18.42
2018-11-06T12:29:47.485Z,18.81
2018-11-06T12:32:18.898Z,18.69
2018-11-06T12:34:51.644Z,18.88
2018-11-06T12:37:24.485Z,18.88
2018-11-06T12:39:57.412Z,18.45
2018-11-06T12:42:30.563Z,18.26
2018-11-06T12:45:03.442Z,18.85
2018-11-06T12:47:36.498Z,18.87
2018-11-06T12:50:10.453Z,18.72
2018-11-06T12:52:47.902Z,18.51
2018-11-06T12:55:20.983Z,17.96
2018-11-06T12:57:54.151Z,18.18
2018-11-06T13:00:30.408Z,19.13
2018-11-06T13:03:01.742Z,20.18
2018-11-06T13:05:34.643Z,22.93
2018-11-06T13:08:07.635Z,25.13
2018-11-06T13:10:40.622Z,27.68
2018-11-06T13:13:13.629Z,27.68
2018-11-06T13:15:47.314Z,31.49
2018-11-06T13:18:20.457Z,31.49
2018-11-06T13:20:53.450Z,32.92
2018-11-06T13:24:21.451Z,33.83
2018-11-06T13:26:52.892Z,33.46
2018-11-06T13:29:26.114Z,32.71
2018-11-06T13:31:59.239Z,32.60
2018-11-06T13:34:39.247Z,32.54
2018-11-06T13:37:12.448Z,32.12
2018-11-06T13:39:45.461Z,30.76
2018-11-06T13:42:18.412Z,29.87
2018-11-06T13:44:50.380Z,30.15
2018-11-06T13:47:23.387Z,30.71
2018-11-06T13:49:54.666Z,31.37
2018-11-06T13:52:27.636Z,33.42
2018-11-06T13:55:00.623Z,34.25
2018-11-06T13:57:33.655Z,35.77
2018-11-06T14:00:08.102Z,35.77
2018-11-06T14:02:41.181Z,36.52
2018-11-06T14:05:14.487Z,36.99
2018-11-06T14:07:47.443Z,37.97
2018-11-06T14:10:19.061Z,38.64
2018-11-06T14:12:52.112Z,39.74
2018-11-06T14:15:25.249Z,40.99
2018-11-06T14:17:58.432Z,41.58
2018-11-06T14:20:31.419Z,43.15
2018-11-06T14:23:02.898Z,43.69
2018-11-06T14:25:35.971Z,43.91
2018-11-06T14:28:09.114Z,44.00
2018-11-06T14:30:43.144Z,44.85
2018-11-06T14:33:16.193Z,45.25
2018-11-06T14:35:50.200Z,46.79
2018-11-06T14:38:23.417Z,46.79
2018-11-06T14:40:54.887Z,48.05
2018-11-06T14:43:27.896Z,48.90
2018-11-06T14:46:01.041Z,49.39
2018-11-06T14:48:34.558Z,49.92
2018-11-06T14:51:06.879Z,50.33
2018-11-06T14:53:39.647Z,50.57
2018-11-06T14:56:12.625Z,51.50
2018-11-06T14:58:45.612Z,51.50
2018-11-06T15:01:18.464Z,51.45
2018-11-06T15:03:51.390Z,51.86
2018-11-06T15:06:22.888Z,51.65
2018-11-06T15:08:55.902Z,52.08
2018-11-06T15:11:29.066Z,52.26
2018-11-06T15:14:02.145Z,52.59
2018-11-06T15:16:35.384Z,52.71
2018-11-06T15:19:08.400Z,53.39
2018-11-06T15:21:41.477Z,54.22
2018-11-06T15:24:13.013Z,54.22
2018-11-06T15:26:45.657Z,54.76
2018-11-06T15:29:18.617Z,54.89
2018-11-06T15:31:51.387Z,55.38
2018-11-06T15:34:23.419Z,55.47
2018-11-06T15:36:55.029Z,55.97
2018-11-06T15:39:28.352Z,56.57
2018-11-06T15:42:02.347Z,56.57
2018-11-06T15:44:35.420Z,56.74
2018-11-06T15:47:07.041Z,56.70
2018-11-06T15:49:40.243Z,57.30
2018-11-06T15:52:13.098Z,57.24
2018-11-06T15:54:47.225Z,57.43
2018-11-06T15:57:23.361Z,57.14
2018-11-06T15:59:56.409Z,57.46
2018-11-06T16:02:27.889Z,58.00
2018-11-06T16:05:00.821Z,57.98
2018-11-06T16:07:33.632Z,57.74
2018-11-06T16:10:07.666Z,58.20
2018-11-06T16:12:40.653Z,58.70
2018-11-06T16:15:13.642Z,58.59
2018-11-06T16:17:46.624Z,58.87
2018-11-06T16:20:20.976Z,58.98
2018-11-06T16:22:54.092Z,58.98
2018-11-06T16:25:27.142Z,59.36
2018-11-06T16:28:00.156Z,59.61
2018-11-06T16:30:35.111Z,59.58
2018-11-06T16:33:08.402Z,59.66
2018-11-06T16:35:41.430Z,59.57
2018-11-06T16:38:12.881Z,59.66
2018-11-06T16:40:46.159Z,59.86
2018-11-06T16:43:19.111Z,60.43
2018-11-06T16:45:52.096Z,60.42
2018-11-06T16:48:26.323Z,60.72
2018-11-06T16:50:59.396Z,60.92
2018-11-06T16:53:30.887Z,61.07
2018-11-06T16:56:03.635Z,61.07
2018-11-06T17:00:39.951Z,61.27
2018-11-06T17:03:13.116Z,61.71
2018-11-06T17:05:47.084Z,62.17
2018-11-06T17:08:20.241Z,62.14
2018-11-06T17:10:53.250Z,62.08
2018-11-06T17:13:27.399Z,61.84
2018-11-06T17:15:58.874Z,61.73
2018-11-06T17:18:31.954Z,61.88
2018-11-06T17:21:05.239Z,61.98
2018-11-06T17:23:38.109Z,62.04
2018-11-06T17:26:11.129Z,62.04
2018-11-06T17:28:44.089Z,62.05
2018-11-06T17:31:17.113Z,62.21
2018-11-06T17:33:51.189Z,62.21
2018-11-06T17:36:24.233Z,62.41
2018-11-06T17:38:57.388Z,62.38
2018-11-06T17:41:29.087Z,62.19
2018-11-06T17:44:03.109Z,62.20
2018-11-06T17:46:36.140Z,62.38
2018-11-06T17:49:11.220Z,62.57
2018-11-06T17:51:44.179Z,62.26
2018-11-06T17:54:17.109Z,62.32
2018-11-06T17:56:52.414Z,62.29
2018-11-06T17:59:23.597Z,62.29
2018-11-06T18:01:54.892Z,62.61
2018-11-06T18:04:28.499Z,62.76
2018-11-06T18:07:01.111Z,62.38
2018-11-06T18:09:34.101Z,62.16
2018-11-06T18:12:07.369Z,62.50
2018-11-06T18:14:40.625Z,62.64
2018-11-06T18:19:52.896Z,61.78
2018-11-06T18:22:25.633Z,61.96
2018-11-06T18:24:59.125Z,61.96
2018-11-06T18:27:32.192Z,62.30
2018-11-06T18:30:05.141Z,62.67
2018-11-06T18:32:38.387Z,62.53
2018-11-06T18:35:11.361Z,62.84
2018-11-06T18:37:42.892Z,62.55
2018-11-06T18:40:18.433Z,62.75
2018-11-06T18:42:50.432Z,62.26
2018-11-06T18:45:21.887Z,62.44
2018-11-06T18:47:54.829Z,62.33
2018-11-06T18:50:27.776Z,62.31
2018-11-06T18:53:00.647Z,62.50
2018-11-06T18:55:33.481Z,62.43
2018-11-06T18:58:06.479Z,62.78
2018-11-06T19:00:39.430Z,62.88
2018-11-06T19:03:10.887Z,62.99
2018-11-06T19:05:43.778Z,63.07
2018-11-06T19:08:16.910Z,62.94
2018-11-06T19:10:50.158Z,62.84
2018-11-06T19:13:23.241Z,62.79
2018-11-06T19:15:56.097Z,62.65
2018-11-06T19:18:29.380Z,62.42
2018-11-06T19:21:02.437Z,62.18
2018-11-06T19:23:33.660Z,62.08
2018-11-06T19:26:06.628Z,62.67
2018-11-06T19:28:39.627Z,62.67
2018-11-06T19:31:12.514Z,63.48
2018-11-06T19:33:45.093Z,63.62
2018-11-06T19:36:18.258Z,64.13
2018-11-06T19:38:51.354Z,64.44
2018-11-06T19:41:24.405Z,64.62
2018-11-06T19:43:57.408Z,64.60
2018-11-06T19:46:30.428Z,64.57
2018-11-06T19:49:01.890Z,64.29
2018-11-06T19:51:35.157Z,64.46
2018-11-06T19:54:08.251Z,64.86
2018-11-06T19:56:41.222Z,64.98
2018-11-06T19:59:14.424Z,64.78
2018-11-06T20:01:45.887Z,64.78
2018-11-06T20:04:18.627Z,65.23
2018-11-06T20:06:51.491Z,65.85
2018-11-06T20:09:22.890Z,65.85
2018-11-06T20:11:55.721Z,65.70
2018-11-06T20:14:26.889Z,65.70
2018-11-06T20:16:59.924Z,65.82
2018-11-06T20:19:32.623Z,65.75
2018-11-06T20:22:05.488Z,66.29
2018-11-06T20:24:40.620Z,66.24
2018-11-06T20:27:13.679Z,66.59
2018-11-06T20:29:46.470Z,66.40
2018-11-06T20:32:19.236Z,66.40
2018-11-06T20:34:52.098Z,66.25
2018-11-06T20:37:25.125Z,66.27
2018-11-06T20:39:58.147Z,66.64
2018-11-06T20:42:31.189Z,66.50
2018-11-06T20:45:04.130Z,66.50
2018-11-06T20:47:39.970Z,66.79
2018-11-06T20:50:24.812Z,66.87
2018-11-06T20:52:57.713Z,67.10
2018-11-06T20:55:30.614Z,66.84
2018-11-06T20:58:02.047Z,66.84
2018-11-06T21:00:39.256Z,66.98
2018-11-06T21:03:12.131Z,66.92
2018-11-06T21:05:45.174Z,66.86
2018-11-06T21:08:18.142Z,66.77
2018-11-06T21:10:52.065Z,66.83
2018-11-06T21:13:24.864Z,66.77
2018-11-06T21:15:57.702Z,66.86
2018-11-06T21:18:30.742Z,66.83
2018-11-06T21:21:03.408Z,66.83
2018-11-06T21:23:36.436Z,67.07
2018-11-06T21:26:09.468Z,66.91
2018-11-06T21:28:40.891Z,66.94
2018-11-06T21:31:13.844Z,66.49
2018-11-06T21:33:46.681Z,66.49
2018-11-06T21:36:19.587Z,66.70
2018-11-06T21:38:52.510Z,66.70
2018-11-06T21:41:25.485Z,66.71
2018-11-06T21:43:56.675Z,66.63
2018-11-06T21:46:29.410Z,66.69
2018-11-06T21:49:01.307Z,66.78
2018-11-06T21:51:34.351Z,66.89
2018-11-06T21:54:07.977Z,66.84
2018-11-06T21:56:40.674Z,66.94
2018-11-06T21:59:13.612Z,66.95
2018-11-06T22:01:44.889Z,66.94
2018-11-06T22:04:17.975Z,66.73
2018-11-06T22:06:51.235Z,67.09
2018-11-06T22:09:24.118Z,66.98
2018-11-06T22:11:57.146Z,67.11
2018-11-06T22:14:30.104Z,66.98
2018-11-06T22:17:03.128Z,67.13
2018-11-06T22:19:36.247Z,67.13
2018-11-06T22:22:09.528Z,66.89
2018-11-06T22:24:42.448Z,66.86
2018-11-06T22:27:13.900Z,66.75
2018-11-06T22:29:46.644Z,66.33
2018-11-06T22:32:19.559Z,66.29
2018-11-06T22:34:52.386Z,66.29
2018-11-06T22:37:23.723Z,66.46
2018-11-06T22:39:56.640Z,66.43
2018-11-06T22:42:29.652Z,66.41
2018-11-06T22:45:02.442Z,66.41
2018-11-06T22:47:34.046Z,66.43
2018-11-06T22:50:07.524Z,66.14
2018-11-06T22:52:38.898Z,65.67
2018-11-06T22:55:11.615Z,65.67
2018-11-06T22:57:44.635Z,65.74
2018-11-06T23:00:41.576Z,65.82
2018-11-06T23:03:16.414Z,65.76
2018-11-06T23:05:47.640Z,65.76
2018-11-06T23:08:30.356Z,65.65
2018-11-06T23:11:01.887Z,65.65
2018-11-06T23:13:34.699Z,65.52
2018-11-06T23:16:07.654Z,65.59
2018-11-06T23:18:40.609Z,65.65
2018-11-06T23:21:13.502Z,65.65
2018-11-06T23:23:46.414Z,65.58
2018-11-06T23:26:19.486Z,65.50
2018-11-06T23:28:50.888Z,65.46
2018-11-06T23:31:27.542Z,65.37
2018-11-06T23:34:02.421Z,65.24
2018-11-06T23:36:35.253Z,65.31
2018-11-06T23:39:10.328Z,65.24
2018-11-06T23:41:43.419Z,65.21
2018-11-06T23:44:14.847Z,65.34
2018-11-06T23:46:47.636Z,65.39
2018-11-06T23:49:20.576Z,65.82
2018-11-06T23:51:51.890Z,65.82
2018-11-06T23:54:24.632Z,65.91
2018-11-06T23:56:55.890Z,65.94
2018-11-06T23:59:28.779Z,65.73
